sensor_id;sensor_type;location;lat;lon;timestamp;P1;durP1;ratioP1;P2;durP2;ratioP2
32319;SDS011;19080;51.750;5.888;2023-09-12T00:00:06;48.75;;;40.03;;
32319;SDS011;19080;51.750;5.888;2023-09-12T00:02:39;48.83;;;41.53;;
32319;SDS011;19080;51.750;5.888;2023-09-12T00:05:06;49.28;;;41.58;;
32319;SDS011;19080;51.750;5.888;2023-09-12T00:07:34;54.78;;;44.30;;
32319;SDS011;19080;51.750;5.888;2023-09-12T00:10:02;51.42;;;41.70;;
32319;SDS011;19080;51.750;5.888;2023-09-12T00:12:29;52.45;;;41.58;;
32319;SDS011;19080;51.750;5.888;2023-09-12T00:14:56;47.45;;;38.22;;
32319;SDS011;19080;51.750;5.888;2023-09-12T00:17:22;57.75;;;43.95;;
32319;SDS011;19080;51.750;5.888;2023-09-12T00:19:49;54.28;;;43.60;;
32319;SDS011;19080;51.750;5.888;2023-09-12T00:22:16;57.53;;;43.22;;
32319;SDS011;19080;51.750;5.888;2023-09-12T00:24:42;55.55;;;43.83;;
32319;SDS011;19080;51.750;5.888;2023-09-12T00:27:09;58.28;;;45.03;;
32319;SDS011;19080;51.750;5.888;2023-09-12T00:29:36;58.42;;;46.25;;
32319;SDS011;19080;51.750;5.888;2023-09-12T00:32:02;59.95;;;46.47;;
32319;SDS011;19080;51.750;5.888;2023-09-12T00:34:29;48.40;;;39.38;;
32319;SDS011;19080;51.750;5.888;2023-09-12T00:36:56;54.22;;;42.78;;
32319;SDS011;19080;51.750;5.888;2023-09-12T00:39:22;50.63;;;41.67;;
32319;SDS011;19080;51.750;5.888;2023-09-12T00:41:49;54.92;;;40.90;;
32319;SDS011;19080;51.750;5.888;2023-09-12T00:44:16;52.60;;;41.22;;
32319;SDS011;19080;51.750;5.888;2023-09-12T00:46:43;52.65;;;44.70;;
32319;SDS011;19080;51.750;5.888;2023-09-12T00:49:12;44.78;;;39.03;;
32319;SDS011;19080;51.750;5.888;2023-09-12T00:51:40;51.17;;;40.00;;
32319;SDS011;19080;51.750;5.888;2023-09-12T00:54:08;46.30;;;38.53;;
32319;SDS011;19080;51.750;5.888;2023-09-12T00:56:35;54.38;;;43.58;;
32319;SDS011;19080;51.750;5.888;2023-09-12T00:59:03;50.03;;;38.70;;
32319;SDS011;19080;51.750;5.888;2023-09-12T01:01:31;47.80;;;38.78;;
32319;SDS011;19080;51.750;5.888;2023-09-12T01:03:58;49.72;;;41.53;;
32319;SDS011;19080;51.750;5.888;2023-09-12T01:06:25;45.95;;;36.83;;
32319;SDS011;19080;51.750;5.888;2023-09-12T01:08:55;43.17;;;38.08;;
32319;SDS011;19080;51.750;5.888;2023-09-12T01:11:21;46.20;;;38.17;;
32319;SDS011;19080;51.750;5.888;2023-09-12T01:13:50;44.50;;;35.00;;
32319;SDS011;19080;51.750;5.888;2023-09-12T01:16:16;49.60;;;41.08;;
32319;SDS011;19080;51.750;5.888;2023-09-12T01:18:43;57.42;;;44.03;;
32319;SDS011;19080;51.750;5.888;2023-09-12T01:29:45;53.72;;;43.95;;
32319;SDS011;19080;51.750;5.888;2023-09-12T01:32:14;54.95;;;42.83;;
32319;SDS011;19080;51.750;5.888;2023-09-12T01:34:42;65.25;;;48.05;;
32319;SDS011;19080;51.750;5.888;2023-09-12T01:37:09;59.17;;;46.90;;
32319;SDS011;19080;51.750;5.888;2023-09-12T01:39:36;54.65;;;40.67;;
32319;SDS011;19080;51.750;5.888;2023-09-12T01:42:03;51.78;;;42.58;;
32319;SDS011;19080;51.750;5.888;2023-09-12T01:44:31;49.10;;;40.63;;
32319;SDS011;19080;51.750;5.888;2023-09-12T01:47:02;52.38;;;41.97;;
32319;SDS011;19080;51.750;5.888;2023-09-12T01:49:31;59.20;;;45.08;;
32319;SDS011;19080;51.750;5.888;2023-09-12T01:51:59;55.53;;;44.33;;
32319;SDS011;19080;51.750;5.888;2023-09-12T01:54:28;45.60;;;36.85;;
32319;SDS011;19080;51.750;5.888;2023-09-12T01:56:55;51.70;;;40.42;;
32319;SDS011;19080;51.750;5.888;2023-09-12T01:59:24;50.05;;;37.92;;
32319;SDS011;19080;51.750;5.888;2023-09-12T02:01:51;53.90;;;41.70;;
32319;SDS011;19080;51.750;5.888;2023-09-12T02:04:18;45.45;;;37.28;;
32319;SDS011;19080;51.750;5.888;2023-09-12T02:06:45;43.30;;;34.45;;
32319;SDS011;19080;51.750;5.888;2023-09-12T02:09:13;42.40;;;35.28;;
32319;SDS011;19080;51.750;5.888;2023-09-12T02:11:40;44.22;;;35.22;;
32319;SDS011;19080;51.750;5.888;2023-09-12T02:14:07;48.33;;;38.38;;
32319;SDS011;19080;51.750;5.888;2023-09-12T02:16:35;49.35;;;39.58;;
32319;SDS011;19080;51.750;5.888;2023-09-12T02:19:07;48.20;;;38.50;;
32319;SDS011;19080;51.750;5.888;2023-09-12T02:21:34;42.78;;;34.15;;
32319;SDS011;19080;51.750;5.888;2023-09-12T02:24:00;41.70;;;33.72;;
32319;SDS011;19080;51.750;5.888;2023-09-12T02:26:27;40.63;;;33.88;;
32319;SDS011;19080;51.750;5.888;2023-09-12T02:28:54;52.40;;;40.60;;
32319;SDS011;19080;51.750;5.888;2023-09-12T02:31:20;51.72;;;40.65;;
32319;SDS011;19080;51.750;5.888;2023-09-12T02:33:47;61.67;;;44.83;;
32319;SDS011;19080;51.750;5.888;2023-09-12T02:36:14;60.67;;;44.78;;
32319;SDS011;19080;51.750;5.888;2023-09-12T02:38:41;62.53;;;44.78;;
32319;SDS011;19080;51.750;5.888;2023-09-12T02:41:08;58.17;;;43.80;;
32319;SDS011;19080;51.750;5.888;2023-09-12T02:43:35;57.55;;;42.13;;
32319;SDS011;19080;51.750;5.888;2023-09-12T02:46:01;61.15;;;43.33;;
32319;SDS011;19080;51.750;5.888;2023-09-12T02:48:28;61.45;;;45.03;;
32319;SDS011;19080;51.750;5.888;2023-09-12T02:50:56;67.40;;;45.70;;
32319;SDS011;19080;51.750;5.888;2023-09-12T02:53:22;63.90;;;44.88;;
32319;SDS011;19080;51.750;5.888;2023-09-12T02:55:51;55.10;;;42.92;;
32319;SDS011;19080;51.750;5.888;2023-09-12T02:58:17;50.67;;;39.67;;
32319;SDS011;19080;51.750;5.888;2023-09-12T03:00:44;52.00;;;39.88;;
32319;SDS011;19080;51.750;5.888;2023-09-12T03:03:11;61.38;;;44.22;;
32319;SDS011;19080;51.750;5.888;2023-09-12T03:05:38;55.83;;;42.80;;
32319;SDS011;19080;51.750;5.888;2023-09-12T03:08:06;56.08;;;42.15;;
32319;SDS011;19080;51.750;5.888;2023-09-12T03:10:32;50.63;;;42.95;;
32319;SDS011;19080;51.750;5.888;2023-09-12T03:12:59;52.83;;;43.42;;
32319;SDS011;19080;51.750;5.888;2023-09-12T03:15:26;50.85;;;42.60;;
32319;SDS011;19080;51.750;5.888;2023-09-12T03:17:52;47.17;;;40.78;;
32319;SDS011;19080;51.750;5.888;2023-09-12T03:20:19;55.17;;;44.72;;
32319;SDS011;19080;51.750;5.888;2023-09-12T03:22:46;48.72;;;40.42;;
32319;SDS011;19080;51.750;5.888;2023-09-12T03:25:13;48.05;;;40.33;;
32319;SDS011;19080;51.750;5.888;2023-09-12T03:27:39;42.03;;;36.92;;
32319;SDS011;19080;51.750;5.888;2023-09-12T03:30:06;53.63;;;42.80;;
32319;SDS011;19080;51.750;5.888;2023-09-12T03:32:34;51.67;;;41.78;;
32319;SDS011;19080;51.750;5.888;2023-09-12T03:35:01;52.28;;;41.50;;
32319;SDS011;19080;51.750;5.888;2023-09-12T03:37:27;53.22;;;43.25;;
32319;SDS011;19080;51.750;5.888;2023-09-12T03:39:55;57.05;;;45.22;;
32319;SDS011;19080;51.750;5.888;2023-09-12T03:42:22;57.25;;;44.38;;
32319;SDS011;19080;51.750;5.888;2023-09-12T03:44:53;54.20;;;43.28;;
32319;SDS011;19080;51.750;5.888;2023-09-12T03:47:19;53.30;;;42.33;;
32319;SDS011;19080;51.750;5.888;2023-09-12T03:49:46;54.83;;;44.25;;
32319;SDS011;19080;51.750;5.888;2023-09-12T03:52:12;51.08;;;42.58;;
32319;SDS011;19080;51.750;5.888;2023-09-12T03:54:39;52.30;;;39.78;;
32319;SDS011;19080;51.750;5.888;2023-09-12T03:57:07;53.72;;;44.28;;
32319;SDS011;19080;51.750;5.888;2023-09-12T03:59:34;60.67;;;46.63;;
32319;SDS011;19080;51.750;5.888;2023-09-12T04:02:01;55.90;;;45.00;;
32319;SDS011;19080;51.750;5.888;2023-09-12T04:04:29;57.13;;;44.53;;
32319;SDS011;19080;51.750;5.888;2023-09-12T04:06:56;51.50;;;39.80;;
32319;SDS011;19080;51.750;5.888;2023-09-12T04:09:22;50.17;;;39.97;;
32319;SDS011;19080;51.750;5.888;2023-09-12T04:11:49;53.25;;;41.97;;
32319;SDS011;19080;51.750;5.888;2023-09-12T04:14:18;66.28;;;49.30;;
32319;SDS011;19080;51.750;5.888;2023-09-12T04:16:45;64.00;;;49.35;;
32319;SDS011;19080;51.750;5.888;2023-09-12T04:19:15;67.78;;;50.95;;
32319;SDS011;19080;51.750;5.888;2023-09-12T04:21:42;62.30;;;48.17;;
32319;SDS011;19080;51.750;5.888;2023-09-12T04:24:08;62.72;;;47.58;;
32319;SDS011;19080;51.750;5.888;2023-09-12T04:26:35;64.57;;;49.92;;
32319;SDS011;19080;51.750;5.888;2023-09-12T04:29:02;59.28;;;45.75;;
32319;SDS011;19080;51.750;5.888;2023-09-12T04:31:29;61.95;;;48.22;;
32319;SDS011;19080;51.750;5.888;2023-09-12T04:33:56;55.85;;;43.72;;
32319;SDS011;19080;51.750;5.888;2023-09-12T04:36:22;68.20;;;51.05;;
32319;SDS011;19080;51.750;5.888;2023-09-12T04:38:49;60.05;;;46.85;;
32319;SDS011;19080;51.750;5.888;2023-09-12T04:41:16;60.72;;;45.67;;
32319;SDS011;19080;51.750;5.888;2023-09-12T04:43:43;60.63;;;44.33;;
32319;SDS011;19080;51.750;5.888;2023-09-12T04:46:12;67.03;;;48.83;;
32319;SDS011;19080;51.750;5.888;2023-09-12T04:48:39;60.67;;;44.00;;
32319;SDS011;19080;51.750;5.888;2023-09-12T04:51:07;60.72;;;45.47;;
32319;SDS011;19080;51.750;5.888;2023-09-12T04:53:33;63.78;;;47.20;;
32319;SDS011;19080;51.750;5.888;2023-09-12T04:56:02;67.10;;;49.50;;
32319;SDS011;19080;51.750;5.888;2023-09-12T04:58:30;74.00;;;53.15;;
32319;SDS011;19080;51.750;5.888;2023-09-12T05:00:56;59.67;;;45.17;;
32319;SDS011;19080;51.750;5.888;2023-09-12T05:03:23;59.25;;;47.42;;
32319;SDS011;19080;51.750;5.888;2023-09-12T05:05:53;63.05;;;48.28;;
32319;SDS011;19080;51.750;5.888;2023-09-12T05:08:20;70.65;;;52.50;;
32319;SDS011;19080;51.750;5.888;2023-09-12T05:10:46;64.95;;;48.63;;
32319;SDS011;19080;51.750;5.888;2023-09-12T05:13:13;62.45;;;46.85;;
32319;SDS011;19080;51.750;5.888;2023-09-12T05:15:40;61.20;;;45.22;;
32319;SDS011;19080;51.750;5.888;2023-09-12T05:18:07;68.03;;;50.20;;
32319;SDS011;19080;51.750;5.888;2023-09-12T05:20:34;64.60;;;48.60;;
32319;SDS011;19080;51.750;5.888;2023-09-12T05:23:02;63.35;;;48.10;;
32319;SDS011;19080;51.750;5.888;2023-09-12T05:25:29;67.78;;;48.10;;
32319;SDS011;19080;51.750;5.888;2023-09-12T05:27:56;55.90;;;43.38;;
32319;SDS011;19080;51.750;5.888;2023-09-12T05:30:23;72.38;;;52.55;;
32319;SDS011;19080;51.750;5.888;2023-09-12T05:32:50;61.97;;;48.08;;
32319;SDS011;19080;51.750;5.888;2023-09-12T05:35:16;65.25;;;50.20;;
32319;SDS011;19080;51.750;5.888;2023-09-12T05:37:49;70.13;;;51.78;;
32319;SDS011;19080;51.750;5.888;2023-09-12T05:40:17;68.43;;;51.10;;
32319;SDS011;19080;51.750;5.888;2023-09-12T05:42:44;73.70;;;54.90;;
32319;SDS011;19080;51.750;5.888;2023-09-12T05:45:11;82.60;;;58.92;;
32319;SDS011;19080;51.750;5.888;2023-09-12T05:47:38;74.80;;;54.58;;
32319;SDS011;19080;51.750;5.888;2023-09-12T05:50:05;66.57;;;51.08;;
32319;SDS011;19080;51.750;5.888;2023-09-12T05:52:33;72.65;;;53.67;;
32319;SDS011;19080;51.750;5.888;2023-09-12T05:55:00;65.60;;;50.78;;
32319;SDS011;19080;51.750;5.888;2023-09-12T05:57:27;75.03;;;54.78;;
32319;SDS011;19080;51.750;5.888;2023-09-12T05:59:54;59.25;;;47.35;;
32319;SDS011;19080;51.750;5.888;2023-09-12T06:02:20;60.47;;;45.67;;
32319;SDS011;19080;51.750;5.888;2023-09-12T06:04:47;58.55;;;45.00;;
32319;SDS011;19080;51.750;5.888;2023-09-12T06:07:14;53.67;;;44.38;;
32319;SDS011;19080;51.750;5.888;2023-09-12T06:09:40;57.13;;;44.35;;
32319;SDS011;19080;51.750;5.888;2023-09-12T06:12:07;57.35;;;44.45;;
32319;SDS011;19080;51.750;5.888;2023-09-12T06:14:34;55.08;;;42.90;;
32319;SDS011;19080;51.750;5.888;2023-09-12T06:17:00;58.20;;;43.35;;
32319;SDS011;19080;51.750;5.888;2023-09-12T06:19:27;53.10;;;41.25;;
32319;SDS011;19080;51.750;5.888;2023-09-12T06:21:54;55.88;;;43.13;;
32319;SDS011;19080;51.750;5.888;2023-09-12T06:24:21;54.78;;;40.92;;
32319;SDS011;19080;51.750;5.888;2023-09-12T06:26:49;55.78;;;40.35;;
32319;SDS011;19080;51.750;5.888;2023-09-12T06:29:16;52.92;;;39.88;;
32319;SDS011;19080;51.750;5.888;2023-09-12T06:31:43;48.10;;;39.67;;
32319;SDS011;19080;51.750;5.888;2023-09-12T06:34:10;59.20;;;43.05;;
32319;SDS011;19080;51.750;5.888;2023-09-12T06:36:38;54.78;;;43.22;;
32319;SDS011;19080;51.750;5.888;2023-09-12T06:39:05;57.53;;;45.47;;
32319;SDS011;19080;51.750;5.888;2023-09-12T06:41:31;54.78;;;43.30;;
32319;SDS011;19080;51.750;5.888;2023-09-12T06:43:59;62.22;;;46.90;;
32319;SDS011;19080;51.750;5.888;2023-09-12T06:46:26;60.38;;;47.58;;
32319;SDS011;19080;51.750;5.888;2023-09-12T06:48:53;66.10;;;50.33;;
32319;SDS011;19080;51.750;5.888;2023-09-12T06:51:22;63.33;;;48.67;;
32319;SDS011;19080;51.750;5.888;2023-09-12T06:53:51;68.95;;;47.47;;
32319;SDS011;19080;51.750;5.888;2023-09-12T06:56:18;61.97;;;47.83;;
32319;SDS011;19080;51.750;5.888;2023-09-12T06:58:45;64.57;;;47.42;;
32319;SDS011;19080;51.750;5.888;2023-09-12T07:01:11;67.30;;;49.92;;
32319;SDS011;19080;51.750;5.888;2023-09-12T07:03:38;66.88;;;51.00;;
32319;SDS011;19080;51.750;5.888;2023-09-12T07:06:05;78.30;;;56.85;;
32319;SDS011;19080;51.750;5.888;2023-09-12T07:08:32;69.68;;;55.33;;
32319;SDS011;19080;51.750;5.888;2023-09-12T07:10:59;70.93;;;53.85;;
32319;SDS011;19080;51.750;5.888;2023-09-12T07:13:32;62.47;;;49.28;;
32319;SDS011;19080;51.750;5.888;2023-09-12T07:15:59;74.72;;;55.13;;
32319;SDS011;19080;51.750;5.888;2023-09-12T07:18:31;73.20;;;55.40;;
32319;SDS011;19080;51.750;5.888;2023-09-12T07:21:01;69.00;;;52.65;;
32319;SDS011;19080;51.750;5.888;2023-09-12T07:23:29;64.13;;;50.28;;
32319;SDS011;19080;51.750;5.888;2023-09-12T07:25:56;66.35;;;50.22;;
32319;SDS011;19080;51.750;5.888;2023-09-12T07:28:24;63.72;;;49.33;;
32319;SDS011;19080;51.750;5.888;2023-09-12T07:30:51;58.45;;;46.97;;
32319;SDS011;19080;51.750;5.888;2023-09-12T07:33:18;61.38;;;48.75;;
32319;SDS011;19080;51.750;5.888;2023-09-12T07:35:45;58.38;;;44.90;;
32319;SDS011;19080;51.750;5.888;2023-09-12T07:38:13;59.55;;;45.00;;
32319;SDS011;19080;51.750;5.888;2023-09-12T07:40:42;52.88;;;41.83;;
32319;SDS011;19080;51.750;5.888;2023-09-12T07:43:09;63.03;;;48.45;;
32319;SDS011;19080;51.750;5.888;2023-09-12T07:45:36;55.67;;;44.13;;
32319;SDS011;19080;51.750;5.888;2023-09-12T07:48:06;57.63;;;45.85;;
32319;SDS011;19080;51.750;5.888;2023-09-12T07:50:38;59.97;;;44.97;;
32319;SDS011;19080;51.750;5.888;2023-09-12T07:53:05;57.70;;;44.97;;
32319;SDS011;19080;51.750;5.888;2023-09-12T07:55:32;54.22;;;42.08;;
32319;SDS011;19080;51.750;5.888;2023-09-12T07:58:15;62.83;;;47.63;;
32319;SDS011;19080;51.750;5.888;2023-09-12T08:00:45;57.90;;;44.03;;
32319;SDS011;19080;51.750;5.888;2023-09-12T08:03:12;55.55;;;44.50;;
32319;SDS011;19080;51.750;5.888;2023-09-12T08:05:39;55.25;;;44.88;;
32319;SDS011;19080;51.750;5.888;2023-09-12T08:08:06;56.33;;;46.15;;
32319;SDS011;19080;51.750;5.888;2023-09-12T08:10:33;51.45;;;41.25;;
32319;SDS011;19080;51.750;5.888;2023-09-12T08:12:59;53.90;;;44.20;;
32319;SDS011;19080;51.750;5.888;2023-09-12T08:15:26;47.13;;;37.42;;
32319;SDS011;19080;51.750;5.888;2023-09-12T08:17:53;47.72;;;38.78;;
32319;SDS011;19080;51.750;5.888;2023-09-12T08:20:21;51.92;;;42.35;;
32319;SDS011;19080;51.750;5.888;2023-09-12T08:22:47;54.65;;;42.58;;
32319;SDS011;19080;51.750;5.888;2023-09-12T08:25:15;51.83;;;41.25;;
32319;SDS011;19080;51.750;5.888;2023-09-12T08:27:42;41.30;;;35.72;;
32319;SDS011;19080;51.750;5.888;2023-09-12T08:30:11;39.55;;;32.10;;
32319;SDS011;19080;51.750;5.888;2023-09-12T08:32:40;38.42;;;30.85;;
32319;SDS011;19080;51.750;5.888;2023-09-12T08:35:11;29.87;;;26.37;;
32319;SDS011;19080;51.750;5.888;2023-09-12T08:37:39;37.65;;;32.72;;
32319;SDS011;19080;51.750;5.888;2023-09-12T08:40:07;42.60;;;33.22;;
32319;SDS011;19080;51.750;5.888;2023-09-12T08:42:39;34.33;;;29.15;;
32319;SDS011;19080;51.750;5.888;2023-09-12T08:45:14;32.78;;;27.50;;
32319;SDS011;19080;51.750;5.888;2023-09-12T08:47:53;33.58;;;29.73;;
32319;SDS011;19080;51.750;5.888;2023-09-12T08:50:22;35.17;;;27.40;;
32319;SDS011;19080;51.750;5.888;2023-09-12T08:52:50;32.00;;;26.30;;
32319;SDS011;19080;51.750;5.888;2023-09-12T08:55:31;38.70;;;32.42;;
32319;SDS011;19080;51.750;5.888;2023-09-12T08:57:59;32.28;;;27.70;;
32319;SDS011;19080;51.750;5.888;2023-09-12T09:00:29;36.00;;;30.75;;
32319;SDS011;19080;51.750;5.888;2023-09-12T09:02:56;34.47;;;29.35;;
32319;SDS011;19080;51.750;5.888;2023-09-12T09:05:24;36.30;;;32.30;;
32319;SDS011;19080;51.750;5.888;2023-09-12T09:07:53;40.53;;;34.45;;
32319;SDS011;19080;51.750;5.888;2023-09-12T09:10:21;34.50;;;30.55;;
32319;SDS011;19080;51.750;5.888;2023-09-12T09:13:09;44.08;;;35.58;;
32319;SDS011;19080;51.750;5.888;2023-09-12T09:15:36;39.20;;;33.92;;
32319;SDS011;19080;51.750;5.888;2023-09-12T09:18:08;41.90;;;31.48;;
32319;SDS011;19080;51.750;5.888;2023-09-12T09:20:37;36.85;;;30.50;;
32319;SDS011;19080;51.750;5.888;2023-09-12T09:23:05;35.92;;;29.25;;
32319;SDS011;19080;51.750;5.888;2023-09-12T09:25:36;33.08;;;24.45;;
32319;SDS011;19080;51.750;5.888;2023-09-12T09:28:19;25.60;;;22.88;;
32319;SDS011;19080;51.750;5.888;2023-09-12T09:30:48;23.27;;;19.67;;
32319;SDS011;19080;51.750;5.888;2023-09-12T09:33:17;22.33;;;19.27;;
32319;SDS011;19080;51.750;5.888;2023-09-12T09:35:48;22.95;;;19.05;;
32319;SDS011;19080;51.750;5.888;2023-09-12T09:38:16;21.13;;;18.00;;
32319;SDS011;19080;51.750;5.888;2023-09-12T09:40:46;19.73;;;15.02;;
32319;SDS011;19080;51.750;5.888;2023-09-12T09:43:12;18.77;;;15.73;;
32319;SDS011;19080;51.750;5.888;2023-09-12T09:45:45;21.88;;;17.55;;
32319;SDS011;19080;51.750;5.888;2023-09-12T09:48:19;21.42;;;19.23;;
32319;SDS011;19080;51.750;5.888;2023-09-12T09:50:47;20.75;;;18.77;;
32319;SDS011;19080;51.750;5.888;2023-09-12T09:53:14;22.20;;;19.92;;
32319;SDS011;19080;51.750;5.888;2023-09-12T09:55:41;20.58;;;18.45;;
32319;SDS011;19080;51.750;5.888;2023-09-12T09:58:14;23.83;;;20.48;;
32319;SDS011;19080;51.750;5.888;2023-09-12T10:00:45;21.25;;;16.40;;
32319;SDS011;19080;51.750;5.888;2023-09-12T10:03:14;17.67;;;15.77;;
32319;SDS011;19080;51.750;5.888;2023-09-12T10:05:46;18.73;;;16.65;;
32319;SDS011;19080;51.750;5.888;2023-09-12T10:08:17;13.57;;;12.07;;
32319;SDS011;19080;51.750;5.888;2023-09-12T10:10:45;19.65;;;16.05;;
32319;SDS011;19080;51.750;5.888;2023-09-12T10:13:13;16.60;;;14.55;;
32319;SDS011;19080;51.750;5.888;2023-09-12T10:15:42;13.73;;;12.07;;
32319;SDS011;19080;51.750;5.888;2023-09-12T10:18:12;16.17;;;14.68;;
32319;SDS011;19080;51.750;5.888;2023-09-12T10:20:57;16.50;;;14.80;;
32319;SDS011;19080;51.750;5.888;2023-09-12T10:23:34;18.05;;;16.35;;
32319;SDS011;19080;51.750;5.888;2023-09-12T10:26:10;19.90;;;17.88;;
32319;SDS011;19080;51.750;5.888;2023-09-12T10:28:40;15.07;;;12.98;;
32319;SDS011;19080;51.750;5.888;2023-09-12T10:31:08;17.27;;;15.27;;
32319;SDS011;19080;51.750;5.888;2023-09-12T10:33:37;9.55;;;8.50;;
32319;SDS011;19080;51.750;5.888;2023-09-12T10:36:05;11.02;;;8.68;;
32319;SDS011;19080;51.750;5.888;2023-09-12T10:38:36;10.25;;;9.25;;
32319;SDS011;19080;51.750;5.888;2023-09-12T10:41:08;8.23;;;6.43;;
32319;SDS011;19080;51.750;5.888;2023-09-12T10:43:38;7.82;;;7.13;;
32319;SDS011;19080;51.750;5.888;2023-09-12T10:46:07;5.82;;;5.22;;
32319;SDS011;19080;51.750;5.888;2023-09-12T10:48:37;8.60;;;6.68;;
32319;SDS011;19080;51.750;5.888;2023-09-12T10:51:06;11.40;;;5.00;;
32319;SDS011;19080;51.750;5.888;2023-09-12T10:53:33;9.02;;;5.88;;
32319;SDS011;19080;51.750;5.888;2023-09-12T10:56:01;9.25;;;5.75;;
32319;SDS011;19080;51.750;5.888;2023-09-12T10:58:44;5.50;;;4.57;;
32319;SDS011;19080;51.750;5.888;2023-09-12T11:01:42;3.25;;;2.63;;
32319;SDS011;19080;51.750;5.888;2023-09-12T11:06:47;6.82;;;5.90;;
32319;SDS011;19080;51.750;5.888;2023-09-12T11:11:45;3.63;;;3.08;;
32319;SDS011;19080;51.750;5.888;2023-09-12T11:14:13;6.30;;;3.58;;
32319;SDS011;19080;51.750;5.888;2023-09-12T11:16:42;4.80;;;3.72;;
32319;SDS011;19080;51.750;5.888;2023-09-12T11:19:13;5.60;;;3.15;;
32319;SDS011;19080;51.750;5.888;2023-09-12T11:21:45;5.05;;;3.33;;
32319;SDS011;19080;51.750;5.888;2023-09-12T11:24:13;4.55;;;3.00;;
32319;SDS011;19080;51.750;5.888;2023-09-12T11:27:02;5.18;;;2.70;;
32319;SDS011;19080;51.750;5.888;2023-09-12T11:29:35;4.90;;;3.45;;
32319;SDS011;19080;51.750;5.888;2023-09-12T11:32:03;4.00;;;3.20;;
32319;SDS011;19080;51.750;5.888;2023-09-12T11:34:37;3.50;;;3.17;;
32319;SDS011;19080;51.750;5.888;2023-09-12T11:37:08;5.05;;;3.50;;
32319;SDS011;19080;51.750;5.888;2023-09-12T11:39:36;4.18;;;2.92;;
32319;SDS011;19080;51.750;5.888;2023-09-12T11:42:03;4.50;;;2.90;;
32319;SDS011;19080;51.750;5.888;2023-09-12T11:44:31;4.10;;;2.97;;
32319;SDS011;19080;51.750;5.888;2023-09-12T11:47:01;6.40;;;3.80;;
32319;SDS011;19080;51.750;5.888;2023-09-12T11:49:36;5.30;;;3.78;;
32319;SDS011;19080;51.750;5.888;2023-09-12T11:54:34;4.00;;;3.22;;
32319;SDS011;19080;51.750;5.888;2023-09-12T11:57:02;6.22;;;3.35;;
32319;SDS011;19080;51.750;5.888;2023-09-12T11:59:29;5.50;;;3.22;;
32319;SDS011;19080;51.750;5.888;2023-09-12T12:01:55;5.53;;;2.92;;
32319;SDS011;19080;51.750;5.888;2023-09-12T12:04:23;3.60;;;2.70;;
32319;SDS011;19080;51.750;5.888;2023-09-12T12:06:52;3.97;;;3.08;;
32319;SDS011;19080;51.750;5.888;2023-09-12T12:09:19;5.35;;;3.40;;
32319;SDS011;19080;51.750;5.888;2023-09-12T12:11:46;3.53;;;3.10;;
32319;SDS011;19080;51.750;5.888;2023-09-12T12:14:13;7.60;;;3.40;;
32319;SDS011;19080;51.750;5.888;2023-09-12T12:16:42;4.93;;;3.00;;
32319;SDS011;19080;51.750;5.888;2023-09-12T12:19:10;5.97;;;4.53;;
32319;SDS011;19080;51.750;5.888;2023-09-12T12:21:41;3.92;;;3.58;;
32319;SDS011;19080;51.750;5.888;2023-09-12T12:24:13;5.28;;;3.55;;
32319;SDS011;19080;51.750;5.888;2023-09-12T12:26:41;3.85;;;2.92;;
32319;SDS011;19080;51.750;5.888;2023-09-12T12:29:09;8.77;;;4.45;;
32319;SDS011;19080;51.750;5.888;2023-09-12T12:31:37;4.07;;;3.13;;
32319;SDS011;19080;51.750;5.888;2023-09-12T12:34:05;3.90;;;2.90;;
32319;SDS011;19080;51.750;5.888;2023-09-12T12:36:53;5.65;;;2.83;;
32319;SDS011;19080;51.750;5.888;2023-09-12T12:39:24;6.03;;;3.00;;
32319;SDS011;19080;51.750;5.888;2023-09-12T12:41:51;3.80;;;2.95;;
32319;SDS011;19080;51.750;5.888;2023-09-12T12:44:19;3.75;;;2.75;;
32319;SDS011;19080;51.750;5.888;2023-09-12T12:49:18;5.18;;;2.92;;
32319;SDS011;19080;51.750;5.888;2023-09-12T12:51:46;4.55;;;2.90;;
32319;SDS011;19080;51.750;5.888;2023-09-12T12:54:13;5.50;;;3.20;;
32319;SDS011;19080;51.750;5.888;2023-09-12T12:56:42;3.30;;;2.70;;
32319;SDS011;19080;51.750;5.888;2023-09-12T12:59:10;6.85;;;3.00;;
32319;SDS011;19080;51.750;5.888;2023-09-12T13:01:37;5.28;;;4.63;;
32319;SDS011;19080;51.750;5.888;2023-09-12T13:04:05;7.65;;;4.60;;
32319;SDS011;19080;51.750;5.888;2023-09-12T13:06:34;8.35;;;5.75;;
32319;SDS011;19080;51.750;5.888;2023-09-12T13:09:04;6.13;;;5.27;;
32319;SDS011;19080;51.750;5.888;2023-09-12T13:11:33;5.25;;;4.72;;
32319;SDS011;19080;51.750;5.888;2023-09-12T13:14:01;6.35;;;5.18;;
32319;SDS011;19080;51.750;5.888;2023-09-12T13:16:30;5.93;;;4.90;;
32319;SDS011;19080;51.750;5.888;2023-09-12T13:18:56;4.55;;;3.70;;
32319;SDS011;19080;51.750;5.888;2023-09-12T13:21:23;6.07;;;4.50;;
32319;SDS011;19080;51.750;5.888;2023-09-12T13:23:50;6.63;;;4.68;;
32319;SDS011;19080;51.750;5.888;2023-09-12T13:26:17;5.70;;;3.58;;
32319;SDS011;19080;51.750;5.888;2023-09-12T13:28:43;5.65;;;4.65;;
32319;SDS011;19080;51.750;5.888;2023-09-12T13:31:10;5.32;;;3.10;;
32319;SDS011;19080;51.750;5.888;2023-09-12T13:33:38;5.20;;;3.38;;
32319;SDS011;19080;51.750;5.888;2023-09-12T13:36:04;4.93;;;3.50;;
32319;SDS011;19080;51.750;5.888;2023-09-12T13:38:32;4.75;;;3.80;;
32319;SDS011;19080;51.750;5.888;2023-09-12T13:40:59;6.20;;;4.07;;
32319;SDS011;19080;51.750;5.888;2023-09-12T13:43:25;4.97;;;3.80;;
32319;SDS011;19080;51.750;5.888;2023-09-12T13:45:52;4.75;;;3.22;;
32319;SDS011;19080;51.750;5.888;2023-09-12T13:48:19;6.30;;;4.35;;
32319;SDS011;19080;51.750;5.888;2023-09-12T13:50:45;3.80;;;3.50;;
32319;SDS011;19080;51.750;5.888;2023-09-12T13:53:12;3.08;;;2.83;;
32319;SDS011;19080;51.750;5.888;2023-09-12T13:55:39;4.50;;;3.42;;
32319;SDS011;19080;51.750;5.888;2023-09-12T13:58:22;6.55;;;3.90;;
32319;SDS011;19080;51.750;5.888;2023-09-12T14:00:50;5.28;;;4.75;;
32319;SDS011;19080;51.750;5.888;2023-09-12T14:03:17;5.25;;;2.88;;
32319;SDS011;19080;51.750;5.888;2023-09-12T14:05:44;4.75;;;3.55;;
32319;SDS011;19080;51.750;5.888;2023-09-12T14:08:12;4.53;;;4.03;;
32319;SDS011;19080;51.750;5.888;2023-09-12T14:10:38;7.03;;;4.38;;
32319;SDS011;19080;51.750;5.888;2023-09-12T14:13:07;5.00;;;3.90;;
32319;SDS011;19080;51.750;5.888;2023-09-12T14:15:37;5.97;;;4.00;;
32319;SDS011;19080;51.750;5.888;2023-09-12T14:18:04;6.13;;;3.85;;
32319;SDS011;19080;51.750;5.888;2023-09-12T14:20:31;5.85;;;4.22;;
32319;SDS011;19080;51.750;5.888;2023-09-12T14:22:58;4.97;;;3.95;;
32319;SDS011;19080;51.750;5.888;2023-09-12T14:25:26;3.88;;;3.22;;
32319;SDS011;19080;51.750;5.888;2023-09-12T14:27:53;5.20;;;3.72;;
32319;SDS011;19080;51.750;5.888;2023-09-12T14:30:20;4.72;;;3.25;;
32319;SDS011;19080;51.750;5.888;2023-09-12T14:32:49;4.00;;;3.45;;
32319;SDS011;19080;51.750;5.888;2023-09-12T14:35:16;3.22;;;2.92;;
32319;SDS011;19080;51.750;5.888;2023-09-12T14:37:42;4.15;;;2.85;;
32319;SDS011;19080;51.750;5.888;2023-09-12T14:40:09;3.67;;;2.90;;
32319;SDS011;19080;51.750;5.888;2023-09-12T14:42:37;3.22;;;2.72;;
32319;SDS011;19080;51.750;5.888;2023-09-12T14:45:05;4.85;;;2.92;;
32319;SDS011;19080;51.750;5.888;2023-09-12T14:47:32;3.60;;;2.92;;
32319;SDS011;19080;51.750;5.888;2023-09-12T14:49:59;4.68;;;3.05;;
32319;SDS011;19080;51.750;5.888;2023-09-12T14:52:26;4.95;;;3.40;;